sensor_id;sensor_type;location;lat;lon;timestamp;P1;durP1;ratioP1;P2;durP2;ratioP2
24663;SDS011;12791;50.992;13.788;2023-07-13T00:00:35;1.00;;;1.00;;
24663;SDS011;12791;50.992;13.788;2023-07-13T00:03:04;1.88;;;0.90;;
24663;SDS011;12791;50.992;13.788;2023-07-13T00:05:31;0.93;;;0.80;;
24663;SDS011;12791;50.992;13.788;2023-07-13T00:07:58;1.17;;;0.90;;
24663;SDS011;12791;50.992;13.788;2023-07-13T00:10:25;1.45;;;1.17;;
24663;SDS011;12791;50.992;13.788;2023-07-13T00:12:52;0.90;;;0.90;;
24663;SDS011;12791;50.992;13.788;2023-07-13T00:15:20;0.77;;;0.77;;
24663;SDS011;12791;50.992;13.788;2023-07-13T00:17:50;0.85;;;0.85;;
24663;SDS011;12791;50.992;13.788;2023-07-13T00:20:18;1.98;;;1.00;;
24663;SDS011;12791;50.992;13.788;2023-07-13T00:22:47;0.93;;;0.80;;
24663;SDS011;12791;50.992;13.788;2023-07-13T00:25:14;3.10;;;0.90;;
24663;SDS011;12791;50.992;13.788;2023-07-13T00:27:41;0.80;;;0.80;;
24663;SDS011;12791;50.992;13.788;2023-07-13T00:30:14;0.90;;;0.90;;
24663;SDS011;12791;50.992;13.788;2023-07-13T00:32:41;0.82;;;0.82;;
24663;SDS011;12791;50.992;13.788;2023-07-13T00:35:08;0.80;;;0.80;;
24663;SDS011;12791;50.992;13.788;2023-07-13T00:37:37;1.02;;;0.90;;
24663;SDS011;12791;50.992;13.788;2023-07-13T00:40:04;1.15;;;1.05;;
24663;SDS011;12791;50.992;13.788;2023-07-13T00:42:33;2.13;;;1.10;;
24663;SDS011;12791;50.992;13.788;2023-07-13T00:45:00;1.23;;;1.13;;
24663;SDS011;12791;50.992;13.788;2023-07-13T00:47:29;1.25;;;1.23;;
24663;SDS011;12791;50.992;13.788;2023-07-13T00:49:55;1.92;;;1.50;;
24663;SDS011;12791;50.992;13.788;2023-07-13T00:52:23;2.13;;;1.40;;
24663;SDS011;12791;50.992;13.788;2023-07-13T00:54:51;1.40;;;1.30;;
24663;SDS011;12791;50.992;13.788;2023-07-13T00:57:19;1.42;;;1.27;;
24663;SDS011;12791;50.992;13.788;2023-07-13T00:59:48;1.60;;;1.50;;
24663;SDS011;12791;50.992;13.788;2023-07-13T01:02:18;2.50;;;1.90;;
24663;SDS011;12791;50.992;13.788;2023-07-13T01:04:46;2.00;;;1.80;;
24663;SDS011;12791;50.992;13.788;2023-07-13T01:07:13;1.77;;;1.42;;
24663;SDS011;12791;50.992;13.788;2023-07-13T01:09:40;1.50;;;1.48;;
24663;SDS011;12791;50.992;13.788;2023-07-13T01:12:09;2.92;;;2.35;;
24663;SDS011;12791;50.992;13.788;2023-07-13T01:14:36;1.92;;;1.73;;
24663;SDS011;12791;50.992;13.788;2023-07-13T01:17:04;2.88;;;2.13;;
24663;SDS011;12791;50.992;13.788;2023-07-13T01:19:32;2.22;;;1.92;;
24663;SDS011;12791;50.992;13.788;2023-07-13T01:22:03;2.75;;;2.03;;
24663;SDS011;12791;50.992;13.788;2023-07-13T01:24:33;4.38;;;2.30;;
24663;SDS011;12791;50.992;13.788;2023-07-13T01:27:01;2.45;;;2.25;;
24663;SDS011;12791;50.992;13.788;2023-07-13T01:29:30;2.42;;;2.22;;
24663;SDS011;12791;50.992;13.788;2023-07-13T01:31:57;1.80;;;1.70;;
24663;SDS011;12791;50.992;13.788;2023-07-13T01:34:25;1.92;;;1.77;;
24663;SDS011;12791;50.992;13.788;2023-07-13T01:36:52;1.88;;;1.77;;
24663;SDS011;12791;50.992;13.788;2023-07-13T01:39:21;3.78;;;2.20;;
24663;SDS011;12791;50.992;13.788;2023-07-13T01:41:48;2.13;;;2.03;;
24663;SDS011;12791;50.992;13.788;2023-07-13T01:44:15;3.97;;;2.25;;
24663;SDS011;12791;50.992;13.788;2023-07-13T01:46:42;2.60;;;2.33;;
24663;SDS011;12791;50.992;13.788;2023-07-13T01:49:09;4.20;;;2.30;;
24663;SDS011;12791;50.992;13.788;2023-07-13T01:51:36;2.45;;;2.25;;
24663;SDS011;12791;50.992;13.788;2023-07-13T01:54:05;4.40;;;2.00;;
24663;SDS011;12791;50.992;13.788;2023-07-13T01:56:34;2.65;;;2.05;;
24663;SDS011;12791;50.992;13.788;2023-07-13T01:59:01;4.70;;;2.55;;
24663;SDS011;12791;50.992;13.788;2023-07-13T02:01:28;2.65;;;2.13;;
24663;SDS011;12791;50.992;13.788;2023-07-13T02:03:55;2.45;;;2.22;;
24663;SDS011;12791;50.992;13.788;2023-07-13T02:06:21;3.40;;;2.40;;
24663;SDS011;12791;50.992;13.788;2023-07-13T02:08:48;2.00;;;1.90;;
24663;SDS011;12791;50.992;13.788;2023-07-13T02:11:15;2.42;;;2.00;;
24663;SDS011;12791;50.992;13.788;2023-07-13T02:13:44;4.80;;;1.80;;
24663;SDS011;12791;50.992;13.788;2023-07-13T02:16:11;1.80;;;1.70;;
24663;SDS011;12791;50.992;13.788;2023-07-13T02:18:38;1.80;;;1.70;;
24663;SDS011;12791;50.992;13.788;2023-07-13T02:21:04;2.88;;;2.03;;
24663;SDS011;12791;50.992;13.788;2023-07-13T02:23:31;3.28;;;1.60;;
24663;SDS011;12791;50.992;13.788;2023-07-13T02:25:59;2.28;;;2.13;;
24663;SDS011;12791;50.992;13.788;2023-07-13T02:28:29;3.03;;;2.05;;
24663;SDS011;12791;50.992;13.788;2023-07-13T02:31:04;2.38;;;2.17;;
24663;SDS011;12791;50.992;13.788;2023-07-13T02:33:32;2.00;;;1.90;;
24663;SDS011;12791;50.992;13.788;2023-07-13T02:35:59;2.60;;;2.13;;
24663;SDS011;12791;50.992;13.788;2023-07-13T02:38:27;2.50;;;2.30;;
24663;SDS011;12791;50.992;13.788;2023-07-13T02:40:54;2.75;;;2.55;;
24663;SDS011;12791;50.992;13.788;2023-07-13T02:43:21;2.15;;;2.05;;
24663;SDS011;12791;50.992;13.788;2023-07-13T02:45:48;2.22;;;1.83;;
24663;SDS011;12791;50.992;13.788;2023-07-13T02:48:16;4.65;;;2.30;;
24663;SDS011;12791;50.992;13.788;2023-07-13T02:50:44;4.35;;;2.20;;
24663;SDS011;12791;50.992;13.788;2023-07-13T02:53:11;2.33;;;2.20;;
24663;SDS011;12791;50.992;13.788;2023-07-13T02:55:38;3.97;;;2.10;;
24663;SDS011;12791;50.992;13.788;2023-07-13T02:58:05;2.30;;;2.20;;
24663;SDS011;12791;50.992;13.788;2023-07-13T03:00:32;3.00;;;2.42;;
24663;SDS011;12791;50.992;13.788;2023-07-13T03:02:59;4.28;;;2.55;;
24663;SDS011;12791;50.992;13.788;2023-07-13T03:05:27;2.53;;;2.42;;
24663;SDS011;12791;50.992;13.788;2023-07-13T03:07:54;2.17;;;1.95;;
24663;SDS011;12791;50.992;13.788;2023-07-13T03:10:22;2.50;;;2.30;;
24663;SDS011;12791;50.992;13.788;2023-07-13T03:12:49;2.75;;;2.50;;
24663;SDS011;12791;50.992;13.788;2023-07-13T03:15:16;2.72;;;2.53;;
24663;SDS011;12791;50.992;13.788;2023-07-13T03:17:43;2.25;;;2.05;;
24663;SDS011;12791;50.992;13.788;2023-07-13T03:20:10;2.47;;;2.38;;
24663;SDS011;12791;50.992;13.788;2023-07-13T03:22:39;2.90;;;2.30;;
24663;SDS011;12791;50.992;13.788;2023-07-13T03:25:07;2.55;;;2.42;;
24663;SDS011;12791;50.992;13.788;2023-07-13T03:27:34;3.50;;;2.05;;
24663;SDS011;12791;50.992;13.788;2023-07-13T03:30:01;2.08;;;1.98;;
24663;SDS011;12791;50.992;13.788;2023-07-13T03:32:28;2.03;;;1.92;;
24663;SDS011;12791;50.992;13.788;2023-07-13T03:34:55;2.60;;;2.40;;
24663;SDS011;12791;50.992;13.788;2023-07-13T03:37:22;2.47;;;2.28;;
24663;SDS011;12791;50.992;13.788;2023-07-13T03:39:50;3.88;;;2.50;;
24663;SDS011;12791;50.992;13.788;2023-07-13T03:42:17;2.55;;;2.33;;
24663;SDS011;12791;50.992;13.788;2023-07-13T03:44:44;2.28;;;2.17;;
24663;SDS011;12791;50.992;13.788;2023-07-13T03:47:17;2.45;;;2.35;;
24663;SDS011;12791;50.992;13.788;2023-07-13T03:49:44;2.42;;;2.30;;
24663;SDS011;12791;50.992;13.788;2023-07-13T03:52:11;2.30;;;2.20;;
24663;SDS011;12791;50.992;13.788;2023-07-13T03:54:38;2.42;;;2.17;;
24663;SDS011;12791;50.992;13.788;2023-07-13T03:57:07;2.25;;;2.15;;
24663;SDS011;12791;50.992;13.788;2023-07-13T03:59:35;3.33;;;2.47;;
24663;SDS011;12791;50.992;13.788;2023-07-13T04:02:02;2.45;;;2.30;;
24663;SDS011;12791;50.992;13.788;2023-07-13T04:04:30;2.75;;;2.28;;
24663;SDS011;12791;50.992;13.788;2023-07-13T04:06:57;2.78;;;2.45;;
24663;SDS011;12791;50.992;13.788;2023-07-13T04:09:24;2.95;;;2.75;;
24663;SDS011;12791;50.992;13.788;2023-07-13T04:11:51;2.58;;;2.47;;
24663;SDS011;12791;50.992;13.788;2023-07-13T04:14:19;2.47;;;2.35;;
24663;SDS011;12791;50.992;13.788;2023-07-13T04:16:46;2.70;;;2.50;;
24663;SDS011;12791;50.992;13.788;2023-07-13T04:19:13;2.97;;;2.50;;
24663;SDS011;12791;50.992;13.788;2023-07-13T04:21:40;2.40;;;2.20;;
24663;SDS011;12791;50.992;13.788;2023-07-13T04:24:07;2.75;;;2.53;;
24663;SDS011;12791;50.992;13.788;2023-07-13T04:26:34;2.75;;;2.55;;
24663;SDS011;12791;50.992;13.788;2023-07-13T04:29:03;2.63;;;2.33;;
24663;SDS011;12791;50.992;13.788;2023-07-13T04:31:32;2.72;;;2.53;;
24663;SDS011;12791;50.992;13.788;2023-07-13T04:33:59;2.35;;;2.15;;
24663;SDS011;12791;50.992;13.788;2023-07-13T04:36:28;3.47;;;3.17;;
24663;SDS011;12791;50.992;13.788;2023-07-13T04:38:55;5.40;;;2.70;;
24663;SDS011;12791;50.992;13.788;2023-07-13T04:41:22;2.65;;;2.45;;
24663;SDS011;12791;50.992;13.788;2023-07-13T04:43:48;2.92;;;2.72;;
24663;SDS011;12791;50.992;13.788;2023-07-13T04:46:16;3.35;;;2.70;;
24663;SDS011;12791;50.992;13.788;2023-07-13T04:48:45;4.07;;;2.78;;
24663;SDS011;12791;50.992;13.788;2023-07-13T04:51:12;3.72;;;3.03;;
24663;SDS011;12791;50.992;13.788;2023-07-13T04:53:39;3.03;;;2.50;;
24663;SDS011;12791;50.992;13.788;2023-07-13T04:56:06;2.67;;;2.58;;
24663;SDS011;12791;50.992;13.788;2023-07-13T04:58:33;2.92;;;2.70;;
24663;SDS011;12791;50.992;13.788;2023-07-13T05:01:00;3.45;;;3.10;;
24663;SDS011;12791;50.992;13.788;2023-07-13T05:03:28;3.03;;;2.92;;
24663;SDS011;12791;50.992;13.788;2023-07-13T05:05:58;2.72;;;2.63;;
24663;SDS011;12791;50.992;13.788;2023-07-13T05:08:26;3.08;;;2.50;;
24663;SDS011;12791;50.992;13.788;2023-07-13T05:10:53;3.13;;;2.92;;
24663;SDS011;12791;50.992;13.788;2023-07-13T05:13:20;2.97;;;2.78;;
24663;SDS011;12791;50.992;13.788;2023-07-13T05:15:55;3.25;;;3.05;;
24663;SDS011;12791;50.992;13.788;2023-07-13T05:18:22;4.00;;;3.00;;
24663;SDS011;12791;50.992;13.788;2023-07-13T05:20:56;2.95;;;2.75;;
24663;SDS011;12791;50.992;13.788;2023-07-13T05:23:26;3.45;;;3.25;;
24663;SDS011;12791;50.992;13.788;2023-07-13T05:25:53;3.22;;;3.03;;
24663;SDS011;12791;50.992;13.788;2023-07-13T05:28:21;3.97;;;3.58;;
24663;SDS011;12791;50.992;13.788;2023-07-13T05:30:48;3.50;;;3.20;;
24663;SDS011;12791;50.992;13.788;2023-07-13T05:33:15;3.33;;;3.15;;
24663;SDS011;12791;50.992;13.788;2023-07-13T05:35:42;3.17;;;2.97;;
24663;SDS011;12791;50.992;13.788;2023-07-13T05:38:11;3.08;;;2.88;;
24663;SDS011;12791;50.992;13.788;2023-07-13T05:40:38;2.90;;;2.80;;
24663;SDS011;12791;50.992;13.788;2023-07-13T05:43:05;3.50;;;3.30;;
24663;SDS011;12791;50.992;13.788;2023-07-13T05:45:32;3.10;;;2.90;;
24663;SDS011;12791;50.992;13.788;2023-07-13T05:47:59;3.08;;;2.95;;
24663;SDS011;12791;50.992;13.788;2023-07-13T05:50:25;3.55;;;3.28;;
24663;SDS011;12791;50.992;13.788;2023-07-13T05:52:53;4.78;;;3.60;;
24663;SDS011;12791;50.992;13.788;2023-07-13T05:55:22;3.88;;;3.58;;
24663;SDS011;12791;50.992;13.788;2023-07-13T05:57:49;3.50;;;3.20;;
24663;SDS011;12791;50.992;13.788;2023-07-13T06:00:16;4.30;;;3.45;;
24663;SDS011;12791;50.992;13.788;2023-07-13T06:02:43;3.60;;;3.30;;
24663;SDS011;12791;50.992;13.788;2023-07-13T06:05:10;3.08;;;2.90;;
24663;SDS011;12791;50.992;13.788;2023-07-13T06:07:37;3.30;;;3.10;;
24663;SDS011;12791;50.992;13.788;2023-07-13T06:10:05;5.93;;;3.28;;
24663;SDS011;12791;50.992;13.788;2023-07-13T06:12:33;2.75;;;2.55;;
24663;SDS011;12791;50.992;13.788;2023-07-13T06:15:00;2.80;;;2.70;;
24663;SDS011;12791;50.992;13.788;2023-07-13T06:17:28;2.88;;;2.67;;
24663;SDS011;12791;50.992;13.788;2023-07-13T06:19:54;2.83;;;2.63;;
24663;SDS011;12791;50.992;13.788;2023-07-13T06:22:21;3.42;;;3.00;;
24663;SDS011;12791;50.992;13.788;2023-07-13T06:24:48;2.40;;;2.30;;
24663;SDS011;12791;50.992;13.788;2023-07-13T06:27:15;2.50;;;2.40;;
24663;SDS011;12791;50.992;13.788;2023-07-13T06:29:43;3.70;;;2.90;;
24663;SDS011;12791;50.992;13.788;2023-07-13T06:32:11;3.08;;;2.88;;
24663;SDS011;12791;50.992;13.788;2023-07-13T06:34:38;3.25;;;2.58;;
24663;SDS011;12791;50.992;13.788;2023-07-13T06:37:05;2.55;;;2.45;;
24663;SDS011;12791;50.992;13.788;2023-07-13T06:39:32;3.03;;;2.83;;
24663;SDS011;12791;50.992;13.788;2023-07-13T06:41:59;2.67;;;2.47;;
24663;SDS011;12791;50.992;13.788;2023-07-13T06:44:26;2.95;;;2.40;;
24663;SDS011;12791;50.992;13.788;2023-07-13T06:46:54;2.42;;;2.22;;
24663;SDS011;12791;50.992;13.788;2023-07-13T06:49:21;2.20;;;2.10;;
24663;SDS011;12791;50.992;13.788;2023-07-13T06:51:48;2.00;;;1.90;;
24663;SDS011;12791;50.992;13.788;2023-07-13T06:54:15;2.17;;;1.85;;
24663;SDS011;12791;50.992;13.788;2023-07-13T06:56:42;2.42;;;1.60;;
24663;SDS011;12791;50.992;13.788;2023-07-13T06:59:08;2.05;;;1.85;;
24663;SDS011;12791;50.992;13.788;2023-07-13T07:01:35;1.67;;;1.58;;
24663;SDS011;12791;50.992;13.788;2023-07-13T07:04:04;3.38;;;1.88;;
24663;SDS011;12791;50.992;13.788;2023-07-13T07:06:31;2.80;;;2.00;;
24663;SDS011;12791;50.992;13.788;2023-07-13T07:08:58;2.10;;;1.90;;
24663;SDS011;12791;50.992;13.788;2023-07-13T07:11:25;2.13;;;1.92;;
24663;SDS011;12791;50.992;13.788;2023-07-13T07:13:52;2.60;;;1.77;;
24663;SDS011;12791;50.992;13.788;2023-07-13T07:16:20;1.95;;;1.83;;
24663;SDS011;12791;50.992;13.788;2023-07-13T07:18:48;2.25;;;1.67;;
24663;SDS011;12791;50.992;13.788;2023-07-13T07:21:19;2.08;;;1.80;;
24663;SDS011;12791;50.992;13.788;2023-07-13T07:23:48;1.65;;;1.55;;
24663;SDS011;12791;50.992;13.788;2023-07-13T07:26:15;1.70;;;1.50;;
24663;SDS011;12791;50.992;13.788;2023-07-13T07:28:42;2.13;;;2.03;;
24663;SDS011;12791;50.992;13.788;2023-07-13T07:31:08;3.67;;;1.67;;
24663;SDS011;12791;50.992;13.788;2023-07-13T07:33:36;2.25;;;1.65;;
24663;SDS011;12791;50.992;13.788;2023-07-13T07:36:03;3.63;;;1.88;;
24663;SDS011;12791;50.992;13.788;2023-07-13T07:38:32;2.53;;;1.75;;
24663;SDS011;12791;50.992;13.788;2023-07-13T07:41:02;1.55;;;1.45;;
24663;SDS011;12791;50.992;13.788;2023-07-13T07:43:32;1.90;;;1.60;;
24663;SDS011;12791;50.992;13.788;2023-07-13T07:45:59;1.50;;;1.40;;
24663;SDS011;12791;50.992;13.788;2023-07-13T07:48:26;1.30;;;1.20;;
24663;SDS011;12791;50.992;13.788;2023-07-13T07:50:53;2.20;;;1.10;;
24663;SDS011;12791;50.992;13.788;2023-07-13T07:53:20;2.30;;;1.08;;
24663;SDS011;12791;50.992;13.788;2023-07-13T07:55:49;4.18;;;1.45;;
24663;SDS011;12791;50.992;13.788;2023-07-13T07:58:16;1.23;;;1.10;;
24663;SDS011;12791;50.992;13.788;2023-07-13T08:00:43;2.78;;;1.10;;
24663;SDS011;12791;50.992;13.788;2023-07-13T08:03:10;1.75;;;1.00;;
24663;SDS011;12791;50.992;13.788;2023-07-13T08:05:37;2.25;;;0.95;;
24663;SDS011;12791;50.992;13.788;2023-07-13T08:08:04;1.10;;;1.00;;
24663;SDS011;12791;50.992;13.788;2023-07-13T08:10:31;3.22;;;0.90;;
24663;SDS011;12791;50.992;13.788;2023-07-13T08:12:59;5.53;;;1.30;;
24663;SDS011;12791;50.992;13.788;2023-07-13T08:15:27;2.22;;;1.42;;
24663;SDS011;12791;50.992;13.788;2023-07-13T08:17:54;3.88;;;1.50;;
24663;SDS011;12791;50.992;13.788;2023-07-13T08:20:21;3.72;;;1.52;;
24663;SDS011;12791;50.992;13.788;2023-07-13T08:22:48;1.20;;;1.10;;
24663;SDS011;12791;50.992;13.788;2023-07-13T08:25:15;3.25;;;1.20;;
24663;SDS011;12791;50.992;13.788;2023-07-13T08:27:42;2.17;;;1.10;;
24663;SDS011;12791;50.992;13.788;2023-07-13T08:30:11;2.05;;;1.20;;
24663;SDS011;12791;50.992;13.788;2023-07-13T08:32:44;1.75;;;1.50;;
24663;SDS011;12791;50.992;13.788;2023-07-13T08:45:41;5.35;;;1.48;;
24663;SDS011;12791;50.992;13.788;2023-07-13T08:48:11;1.95;;;1.00;;
24663;SDS011;12791;50.992;13.788;2023-07-13T08:50:47;1.38;;;1.27;;
24663;SDS011;12791;50.992;13.788;2023-07-13T08:53:20;2.25;;;1.05;;
24663;SDS011;12791;50.992;13.788;2023-07-13T08:55:48;1.17;;;1.02;;
24663;SDS011;12791;50.992;13.788;2023-07-13T08:58:22;2.58;;;0.95;;
24663;SDS011;12791;50.992;13.788;2023-07-13T09:01:10;2.70;;;0.80;;
24663;SDS011;12791;50.992;13.788;2023-07-13T09:03:46;7.78;;;1.63;;
24663;SDS011;12791;50.992;13.788;2023-07-13T09:06:26;3.88;;;0.90;;
24663;SDS011;12791;50.992;13.788;2023-07-13T09:08:58;1.77;;;0.90;;
24663;SDS011;12791;50.992;13.788;2023-07-13T09:11:42;1.05;;;0.73;;
24663;SDS011;12791;50.992;13.788;2023-07-13T09:17:12;1.00;;;0.60;;
24663;SDS011;12791;50.992;13.788;2023-07-13T09:19:43;1.55;;;0.68;;
24663;SDS011;12791;50.992;13.788;2023-07-13T09:22:14;2.20;;;1.08;;
24663;SDS011;12791;50.992;13.788;2023-07-13T09:24:47;2.13;;;0.90;;
24663;SDS011;12791;50.992;13.788;2023-07-13T09:27:22;1.15;;;0.70;;
24663;SDS011;12791;50.992;13.788;2023-07-13T09:29:57;2.45;;;0.80;;
24663;SDS011;12791;50.992;13.788;2023-07-13T09:32:31;1.80;;;0.80;;
24663;SDS011;12791;50.992;13.788;2023-07-13T09:35:00;0.63;;;0.63;;
24663;SDS011;12791;50.992;13.788;2023-07-13T09:37:29;1.92;;;0.90;;
24663;SDS011;12791;50.992;13.788;2023-07-13T09:39:58;0.75;;;0.60;;
24663;SDS011;12791;50.992;13.788;2023-07-13T09:42:30;1.00;;;0.85;;
24663;SDS011;12791;50.992;13.788;2023-07-13T09:44:59;1.40;;;0.68;;
24663;SDS011;12791;50.992;13.788;2023-07-13T09:47:29;1.17;;;0.70;;
24663;SDS011;12791;50.992;13.788;2023-07-13T09:50:00;1.88;;;0.75;;
24663;SDS011;12791;50.992;13.788;2023-07-13T09:52:29;1.58;;;1.15;;
24663;SDS011;12791;50.992;13.788;2023-07-13T09:55:15;1.15;;;0.70;;
24663;SDS011;12791;50.992;13.788;2023-07-13T09:57:50;0.57;;;0.57;;
24663;SDS011;12791;50.992;13.788;2023-07-13T10:00:20;0.85;;;0.60;;
24663;SDS011;12791;50.992;13.788;2023-07-13T10:02:57;1.23;;;0.60;;
24663;SDS011;12791;50.992;13.788;2023-07-13T10:05:38;1.05;;;0.60;;
24663;SDS011;12791;50.992;13.788;2023-07-13T10:08:14;2.15;;;0.70;;
24663;SDS011;12791;50.992;13.788;2023-07-13T10:10:46;4.13;;;0.90;;
24663;SDS011;12791;50.992;13.788;2023-07-13T10:13:31;1.15;;;0.80;;
24663;SDS011;12791;50.992;13.788;2023-07-13T10:16:02;3.90;;;0.73;;
24663;SDS011;12791;50.992;13.788;2023-07-13T10:18:32;2.03;;;0.68;;
24663;SDS011;12791;50.992;13.788;2023-07-13T10:21:14;1.73;;;0.70;;
24663;SDS011;12791;50.992;13.788;2023-07-13T10:23:43;1.33;;;0.70;;
24663;SDS011;12791;50.992;13.788;2023-07-13T10:26:14;2.60;;;0.70;;
24663;SDS011;12791;50.992;13.788;2023-07-13T10:28:46;0.70;;;0.70;;
24663;SDS011;12791;50.992;13.788;2023-07-13T10:31:18;0.63;;;0.60;;
24663;SDS011;12791;50.992;13.788;2023-07-13T10:33:46;1.00;;;0.73;;
24663;SDS011;12791;50.992;13.788;2023-07-13T10:36:27;1.75;;;0.70;;
24663;SDS011;12791;50.992;13.788;2023-07-13T10:39:00;1.17;;;0.75;;
24663;SDS011;12791;50.992;13.788;2023-07-13T10:41:30;2.03;;;1.10;;
24663;SDS011;12791;50.992;13.788;2023-07-13T10:44:01;2.20;;;0.90;;
24663;SDS011;12791;50.992;13.788;2023-07-13T10:46:30;1.67;;;0.80;;
24663;SDS011;12791;50.992;13.788;2023-07-13T10:48:58;1.02;;;0.70;;
24663;SDS011;12791;50.992;13.788;2023-07-13T10:51:30;1.85;;;0.80;;
24663;SDS011;12791;50.992;13.788;2023-07-13T10:56:43;1.13;;;0.70;;
24663;SDS011;12791;50.992;13.788;2023-07-13T10:59:11;4.82;;;1.00;;
24663;SDS011;12791;50.992;13.788;2023-07-13T11:01:47;1.98;;;1.30;;
24663;SDS011;12791;50.992;13.788;2023-07-13T11:04:19;0.88;;;0.70;;
24663;SDS011;12791;50.992;13.788;2023-07-13T11:06:52;0.80;;;0.70;;
24663;SDS011;12791;50.992;13.788;2023-07-13T11:09:34;9.88;;;2.25;;
24663;SDS011;12791;50.992;13.788;2023-07-13T11:12:08;31.98;;;6.97;;
24663;SDS011;12791;50.992;13.788;2023-07-13T11:14:42;7.13;;;2.05;;
24663;SDS011;12791;50.992;13.788;2023-07-13T11:22:50;2.58;;;0.80;;
24663;SDS011;12791;50.992;13.788;2023-07-13T11:25:26;1.67;;;0.70;;
24663;SDS011;12791;50.992;13.788;2023-07-13T11:30:49;2.55;;;0.60;;
24663;SDS011;12791;50.992;13.788;2023-07-13T11:33:28;0.60;;;0.60;;
24663;SDS011;12791;50.992;13.788;2023-07-13T11:36:00;0.50;;;0.50;;
24663;SDS011;12791;50.992;13.788;2023-07-13T11:41:02;2.53;;;0.80;;
24663;SDS011;12791;50.992;13.788;2023-07-13T11:43:31;1.25;;;0.70;;
24663;SDS011;12791;50.992;13.788;2023-07-13T11:46:11;0.75;;;0.65;;
24663;SDS011;12791;50.992;13.788;2023-07-13T11:48:40;2.15;;;0.70;;
24663;SDS011;12791;50.992;13.788;2023-07-13T11:51:09;1.10;;;0.80;;
24663;SDS011;12791;50.992;13.788;2023-07-13T11:53:48;1.40;;;0.80;;
24663;SDS011;12791;50.992;13.788;2023-07-13T11:56:16;3.13;;;0.90;;
24663;SDS011;12791;50.992;13.788;2023-07-13T11:58:47;2.35;;;0.90;;
24663;SDS011;12791;50.992;13.788;2023-07-13T12:01:17;2.05;;;0.82;;
24663;SDS011;12791;50.992;13.788;2023-07-13T12:03:47;2.15;;;0.95;;
24663;SDS011;12791;50.992;13.788;2023-07-13T12:06:26;1.27;;;0.93;;
24663;SDS011;12791;50.992;13.788;2023-07-13T12:08:59;0.80;;;0.80;;
24663;SDS011;12791;50.992;13.788;2023-07-13T12:11:28;2.42;;;1.20;;
24663;SDS011;12791;50.992;13.788;2023-07-13T12:13:56;1.27;;;0.80;;
24663;SDS011;12791;50.992;13.788;2023-07-13T12:16:25;3.55;;;1.20;;
24663;SDS011;12791;50.992;13.788;2023-07-13T12:18:54;1.25;;;1.02;;
24663;SDS011;12791;50.992;13.788;2023-07-13T12:21:23;0.98;;;0.77;;
24663;SDS011;12791;50.992;13.788;2023-07-13T12:23:58;0.95;;;0.80;;
24663;SDS011;12791;50.992;13.788;2023-07-13T12:26:27;0.82;;;0.82;;
24663;SDS011;12791;50.992;13.788;2023-07-13T12:28:56;2.40;;;0.82;;
24663;SDS011;12791;50.992;13.788;2023-07-13T12:31:29;2.13;;;1.30;;
24663;SDS011;12791;50.992;13.788;2023-07-13T12:34:00;1.95;;;0.90;;
24663;SDS011;12791;50.992;13.788;2023-07-13T12:36:32;2.70;;;0.70;;
24663;SDS011;12791;50.992;13.788;2023-07-13T12:39:03;2.17;;;0.95;;
24663;SDS011;12791;50.992;13.788;2023-07-13T12:41:38;2.38;;;0.93;;
24663;SDS011;12791;50.992;13.788;2023-07-13T12:44:08;0.95;;;0.80;;
24663;SDS011;12791;50.992;13.788;2023-07-13T12:46:38;1.42;;;0.90;;
24663;SDS011;12791;50.992;13.788;2023-07-13T12:49:06;1.75;;;0.90;;
24663;SDS011;12791;50.992;13.788;2023-07-13T12:51:33;3.13;;;1.27;;
24663;SDS011;12791;50.992;13.788;2023-07-13T12:54:11;2.80;;;1.02;;
24663;SDS011;12791;50.992;13.788;2023-07-13T12:56:42;1.30;;;0.68;;
24663;SDS011;12791;50.992;13.788;2023-07-13T12:59:13;4.53;;;1.42;;
24663;SDS011;12791;50.992;13.788;2023-07-13T13:01:43;2.85;;;1.27;;
24663;SDS011;12791;50.992;13.788;2023-07-13T13:04:12;3.08;;;0.90;;
24663;SDS011;12791;50.992;13.788;2023-07-13T13:06:39;2.80;;;0.80;;
24663;SDS011;12791;50.992;13.788;2023-07-13T13:09:11;2.80;;;0.90;;
24663;SDS011;12791;50.992;13.788;2023-07-13T13:11:40;3.03;;;0.90;;
24663;SDS011;12791;50.992;13.788;2023-07-13T13:14:07;2.25;;;1.02;;
24663;SDS011;12791;50.992;13.788;2023-07-13T13:16:40;0.98;;;0.90;;
24663;SDS011;12791;50.992;13.788;2023-07-13T13:19:13;2.25;;;1.00;;
24663;SDS011;12791;50.992;13.788;2023-07-13T13:21:42;4.30;;;0.98;;
24663;SDS011;12791;50.992;13.788;2023-07-13T13:24:12;5.35;;;1.00;;
24663;SDS011;12791;50.992;13.788;2023-07-13T13:26:42;1.08;;;0.80;;
24663;SDS011;12791;50.992;13.788;2023-07-13T13:32:31;2.45;;;0.80;;
24663;SDS011;12791;50.992;13.788;2023-07-13T13:35:01;2.85;;;0.80;;
24663;SDS011;12791;50.992;13.788;2023-07-13T13:37:40;2.22;;;0.70;;
24663;SDS011;12791;50.992;13.788;2023-07-13T13:40:24;1.33;;;0.77;;
24663;SDS011;12791;50.992;13.788;2023-07-13T13:42:53;0.70;;;0.70;;
24663;SDS011;12791;50.992;13.788;2023-07-13T13:45:42;0.70;;;0.52;;
24663;SDS011;12791;50.992;13.788;2023-07-13T13:51:25;0.75;;;0.52;;
24663;SDS011;12791;50.992;13.788;2023-07-13T13:53:53;3.47;;;0.75;;
24663;SDS011;12791;50.992;13.788;2023-07-13T13:56:35;1.42;;;0.80;;
24663;SDS011;12791;50.992;13.788;2023-07-13T14:00:08;0.60;;;0.60;;
24663;SDS011;12791;50.992;13.788;2023-07-13T14:02:49;3.53;;;0.80;;
24663;SDS011;12791;50.992;13.788;2023-07-13T14:05:22;1.90;;;0.73;;
24663;SDS011;12791;50.992;13.788;2023-07-13T14:08:42;1.33;;;0.60;;
24663;SDS011;12791;50.992;13.788;2023-07-13T14:11:31;1.83;;;0.80;;
24663;SDS011;12791;50.992;13.788;2023-07-13T14:14:37;1.83;;;0.82;;
24663;SDS011;12791;50.992;13.788;2023-07-13T14:17:30;1.15;;;0.80;;
24663;SDS011;12791;50.992;13.788;2023-07-13T14:20:14;3.40;;;0.88;;
24663;SDS011;12791;50.992;13.788;2023-07-13T14:22:54;1.45;;;0.80;;
24663;SDS011;12791;50.992;13.788;2023-07-13T14:25:46;2.08;;;0.90;;
24663;SDS011;12791;50.992;13.788;2023-07-13T14:28:41;1.52;;;0.68;;
24663;SDS011;12791;50.992;13.788;2023-07-13T14:31:41;1.48;;;0.70;;
24663;SDS011;12791;50.992;13.788;2023-07-13T14:34:09;2.22;;;0.60;;
24663;SDS011;12791;50.992;13.788;2023-07-13T14:36:38;1.05;;;0.73;;
24663;SDS011;12791;50.992;13.788;2023-07-13T14:39:10;1.85;;;0.85;;
24663;SDS011;12791;50.992;13.788;2023-07-13T14:41:39;1.83;;;0.80;;
24663;SDS011;12791;50.992;13.788;2023-07-13T14:44:12;2.00;;;0.80;;
24663;SDS011;12791;50.992;13.788;2023-07-13T14:46:41;2.67;;;0.88;;
24663;SDS011;12791;50.992;13.788;2023-07-13T14:49:12;1.90;;;0.60;;
24663;SDS011;12791;50.992;13.788;2023-07-13T14:51:48;3.70;;;0.80;;
24663;SDS011;12791;50.992;13.788;2023-07-13T14:54:15;1.63;;;0.80;;
24663;SDS011;12791;50.992;13.788;2023-07-13T14:56:42;0.93;;;0.70;;
24663;SDS011;12791;50.992;13.788;2023-07-13T14:59:09;2.47;;;0.65;;
24663;SDS011;12791;50.992;13.788;2023-07-13T15:01:38;1.13;;;0.60;;
24663;SDS011;12791;50.992;13.788;2023-07-13T15:04:07;0.70;;;0.70;;
24663;SDS011;12791;50.992;13.788;2023-07-13T15:09:20;7.82;;;2.10;;
24663;SDS011;12791;50.992;13.788;2023-07-13T15:11:49;1.98;;;0.75;;
24663;SDS011;12791;50.992;13.788;2023-07-13T15:14:18;2.47;;;0.85;;
24663;SDS011;12791;50.992;13.788;2023-07-13T15:16:49;1.92;;;0.90;;
24663;SDS011;12791;50.992;13.788;2023-07-13T15:19:17;1.23;;;0.70;;
24663;SDS011;12791;50.992;13.788;2023-07-13T15:21:48;2.83;;;0.80;;
24663;SDS011;12791;50.992;13.788;2023-07-13T15:24:17;1.73;;;0.75;;
24663;SDS011;12791;50.992;13.788;2023-07-13T15:26:47;1.48;;;0.80;;